Time;durP1;ratioP1;P1;durP2;ratioP2;P2;SDS_P1;SDS_P2;PMS_P1;PMS_P2;Temp;Humidity;BMP_temperature;BMP_pressure;BME280_temperature;BME280_humidity;BME280_pressure;Samples;Min_cycle;Max_cycle;Signal;HPM_P1;HPM_P2
2021/12/25 00:04:26;;;;;;;0.73;0.10;;;;;;;;;;10255197;28;20592;-77
2021/12/25 00:09:27;;;;;;;0.57;0.17;;;;;;;;;;10274873;28;20296;-77
2021/12/25 00:14:28;;;;;;;0.10;0.10;;;;;;;;;;10257133;28;20229;-77
2021/12/25 00:19:30;;;;;;;0.30;0.10;;;;;;;;;;10274797;28;20234;-77
2021/12/25 00:24:31;;;;;;;2.27;0.30;;;;;;;;;;10264633;28;21153;-77
2021/12/25 00:29:50;;;;;;;0.10;0.10;;;;;;;;;;10277572;28;20201;-77
2021/12/25 00:34:52;;;;;;;0.10;0.10;;;;;;;;;;10263652;28;20285;-78
2021/12/25 00:39:56;;;;;;;0.77;0.10;;;;;;;;;;10273547;28;20240;-77
2021/12/25 00:44:57;;;;;;;1.80;0.10;;;;;;;;;;10262369;28;20334;-77
2021/12/25 00:49:58;;;;;;;0.10;0.10;;;;;;;;;;10262047;28;20197;-77
2021/12/25 00:55:01;;;;;;;0.77;0.10;;;;;;;;;;10279180;28;21188;-77
2021/12/25 01:00:04;;;;;;;0.10;0.10;;;;;;;;;;10276215;28;20225;-77
2021/12/25 01:05:06;;;;;;;1.40;0.10;;;;;;;;;;10251056;28;20220;-77
2021/12/25 01:10:09;;;;;;;1.00;0.20;;;;;;;;;;10269809;28;20205;-78
2021/12/25 01:15:12;;;;;;;0.73;0.10;;;;;;;;;;10266935;28;20472;-77
2021/12/25 01:30:51;;;;;;;0.60;0.40;;;;;;;;;;10280839;28;20328;-77
2021/12/25 01:36:24;;;;;;;0.97;0.40;;;;;;;;;;10263021;28;20342;-78
2021/12/25 01:52:30;;;;;;;0.20;0.17;;;;;;;;;;10278605;28;20237;-77
2021/12/25 01:57:31;;;;;;;1.40;0.40;;;;;;;;;;10277464;28;20205;-78
2021/12/25 02:02:33;;;;;;;0.93;0.10;;;;;;;;;;10274816;28;21214;-78
2021/12/25 02:07:35;;;;;;;0.40;0.10;;;;;;;;;;10280097;28;20839;-77
2021/12/25 02:12:36;;;;;;;1.20;0.20;;;;;;;;;;10263850;28;20668;-77
2021/12/25 02:23:36;;;;;;;0.17;0.17;;;;;;;;;;10219026;28;20257;-77
2021/12/25 02:28:37;;;;;;;0.30;0.20;;;;;;;;;;10208449;28;20214;-78
2021/12/25 02:33:39;;;;;;;0.10;0.10;;;;;;;;;;10217105;28;20222;-78
2021/12/25 02:38:41;;;;;;;0.23;0.23;;;;;;;;;;10215834;28;20285;-77
2021/12/25 02:43:45;;;;;;;0.20;0.20;;;;;;;;;;10214791;28;20214;-78
2021/12/25 02:48:47;;;;;;;0.23;0.20;;;;;;;;;;10218751;28;20210;-78
2021/12/25 02:53:48;;;;;;;2.07;0.20;;;;;;;;;;10223819;28;20206;-78
2021/12/25 02:58:50;;;;;;;0.17;0.10;;;;;;;;;;10265578;28;20232;-77
2021/12/25 03:03:51;;;;;;;0.67;0.13;;;;;;;;;;10259712;28;20252;-78
2021/12/25 03:08:52;;;;;;;0.10;0.10;;;;;;;;;;10265846;28;20677;-77
2021/12/25 03:14:00;;;;;;;0.23;0.20;;;;;;;;;;10259465;28;20723;-77
2021/12/25 03:19:05;;;;;;;0.93;0.10;;;;;;;;;;10265168;28;20225;-78
2021/12/25 03:24:08;;;;;;;0.67;0.10;;;;;;;;;;10263310;28;20205;-77
2021/12/25 03:29:09;;;;;;;0.63;0.10;;;;;;;;;;10258889;28;20229;-77
2021/12/25 03:34:10;;;;;;;0.00;0.00;;;;;;;;;;10258455;28;21139;-77
2021/12/25 03:39:12;;;;;;;1.00;0.20;;;;;;;;;;10273071;28;20229;-77
2021/12/25 03:44:14;;;;;;;0.37;0.13;;;;;;;;;;10259236;28;20201;-77
2021/12/25 03:49:27;;;;;;;1.50;0.20;;;;;;;;;;10259179;28;20205;-77
2021/12/25 03:59:58;;;;;;;1.07;0.10;;;;;;;;;;10268647;28;20664;-78
2021/12/25 04:05:01;;;;;;;1.60;0.20;;;;;;;;;;10257776;28;21254;-78
2021/12/25 04:10:04;;;;;;;1.03;0.20;;;;;;;;;;10279107;28;20292;-77
2021/12/25 04:15:05;;;;;;;0.50;0.10;;;;;;;;;;10264005;28;20197;-77
2021/12/25 04:20:07;;;;;;;1.03;0.13;;;;;;;;;;10280820;28;20692;-77
2021/12/25 04:25:08;;;;;;;0.37;0.27;;;;;;;;;;10255054;28;20213;-77
2021/12/25 04:30:28;;;;;;;0.30;0.30;;;;;;;;;;10259921;28;20613;-77
2021/12/25 05:02:43;;;;;;;0.50;0.20;;;;;;;;;;10259669;28;20932;-77
2021/12/25 05:07:52;;;;;;;0.37;0.33;;;;;;;;;;10283180;28;20208;-77
2021/12/25 05:12:54;;;;;;;0.80;0.60;;;;;;;;;;10280065;28;20229;-77
2021/12/25 05:17:55;;;;;;;3.43;0.70;;;;;;;;;;10285279;28;20197;-77
2021/12/25 05:22:56;;;;;;;1.60;0.60;;;;;;;;;;10264234;28;20232;-77
2021/12/25 05:27:59;;;;;;;0.50;0.50;;;;;;;;;;10270589;28;21424;-77
2021/12/25 05:33:00;;;;;;;0.30;0.30;;;;;;;;;;10284894;28;20216;-77
2021/12/25 05:38:21;;;;;;;1.00;0.57;;;;;;;;;;10278977;28;20208;-77
2021/12/25 05:43:31;;;;;;;1.90;0.20;;;;;;;;;;10277396;28;20332;-76
2021/12/25 05:48:35;;;;;;;2.83;0.30;;;;;;;;;;10281662;28;20204;-77
2021/12/25 05:53:55;;;;;;;0.30;0.20;;;;;;;;;;10281211;28;20794;-76
2021/12/25 05:59:14;;;;;;;0.30;0.30;;;;;;;;;;10277876;28;20213;-76
2021/12/25 06:04:38;;;;;;;1.20;0.20;;;;;;;;;;10266167;28;20228;-76
2021/12/25 06:09:40;;;;;;;0.30;0.30;;;;;;;;;;10284678;28;20288;-76
2021/12/25 06:14:44;;;;;;;1.23;0.10;;;;;;;;;;10278979;28;20212;-76
2021/12/25 06:19:48;;;;;;;0.57;0.20;;;;;;;;;;10258336;28;20216;-75
2021/12/25 06:25:08;;;;;;;1.50;0.30;;;;;;;;;;10269668;28;20208;-75
2021/12/25 06:30:24;;;;;;;1.00;0.40;;;;;;;;;;10253153;28;20278;-76
2021/12/25 06:35:33;;;;;;;0.30;0.30;;;;;;;;;;10272561;28;20690;-76
2021/12/25 06:40:49;;;;;;;2.10;0.30;;;;;;;;;;10256576;28;20221;-76
2021/12/25 06:45:50;;;;;;;1.63;0.27;;;;;;;;;;10277400;28;20205;-75
2021/12/25 06:50:52;;;;;;;1.77;0.30;;;;;;;;;;10269961;28;20275;-75
2021/12/25 06:56:10;;;;;;;0.43;0.43;;;;;;;;;;10256811;28;20292;-75
2021/12/25 07:01:50;;;;;;;0.40;0.40;;;;;;;;;;10239328;28;20328;-75
2021/12/25 07:07:17;;;;;;;1.70;0.50;;;;;;;;;;10273482;28;20753;-74
2021/12/25 07:12:39;;;;;;;0.30;0.30;;;;;;;;;;10272618;28;20213;-75
2021/12/25 07:18:09;;;;;;;0.30;0.30;;;;;;;;;;10264609;28;24484;-75
2021/12/25 07:23:30;;;;;;;0.30;0.30;;;;;;;;;;10266103;28;20279;-75
2021/12/25 07:28:48;;;;;;;0.40;0.40;;;;;;;;;;10255696;28;20259;-75
2021/12/25 07:33:49;;;;;;;0.53;0.50;;;;;;;;;;10260374;28;20673;-76
2021/12/25 07:38:52;;;;;;;1.23;0.50;;;;;;;;;;10259405;28;20201;-76
2021/12/25 07:43:53;;;;;;;0.87;0.73;;;;;;;;;;10277325;28;20222;-76
2021/12/25 07:49:21;;;;;;;0.60;0.60;;;;;;;;;;10256506;28;20684;-76
2021/12/25 07:54:22;;;;;;;0.53;0.53;;;;;;;;;;10268022;28;21871;-76
2021/12/25 07:59:23;;;;;;;1.30;0.67;;;;;;;;;;10260345;28;20274;-75
2021/12/25 08:04:24;;;;;;;0.80;0.80;;;;;;;;;;10257540;28;20221;-75
2021/12/25 08:09:29;;;;;;;1.70;1.10;;;;;;;;;;10276389;28;20267;-75
2021/12/25 08:14:30;;;;;;;1.20;1.10;;;;;;;;;;10255594;28;21083;-76
2021/12/25 08:19:32;;;;;;;1.30;0.93;;;;;;;;;;10283781;28;20227;-76
2021/12/25 08:24:51;;;;;;;2.10;1.03;;;;;;;;;;10273428;28;20201;-76
2021/12/25 08:30:12;;;;;;;1.50;1.40;;;;;;;;;;10279906;28;21173;-76
2021/12/25 08:35:49;;;;;;;3.93;1.93;;;;;;;;;;10274426;28;20328;-75
2021/12/25 08:40:54;;;;;;;2.27;2.07;;;;;;;;;;10277923;28;20224;-75
2021/12/25 08:46:13;;;;;;;2.27;1.70;;;;;;;;;;10267171;28;20210;-76
2021/12/25 08:51:14;;;;;;;2.57;1.10;;;;;;;;;;10274249;28;21728;-76
2021/12/25 08:56:15;;;;;;;1.10;0.70;;;;;;;;;;10282099;28;20325;-76
2021/12/25 09:01:16;;;;;;;1.47;1.30;;;;;;;;;;10275018;28;20224;-76
2021/12/25 09:06:17;;;;;;;2.10;0.93;;;;;;;;;;10274704;28;20307;-76
2021/12/25 09:11:20;;;;;;;0.83;0.83;;;;;;;;;;10275984;28;20934;-77
2021/12/25 09:16:21;;;;;;;2.00;0.73;;;;;;;;;;10252048;28;20573;-76
2021/12/25 09:21:22;;;;;;;0.90;0.90;;;;;;;;;;10258151;28;20217;-76
2021/12/25 09:26:23;;;;;;;1.23;0.70;;;;;;;;;;10253698;28;20253;-77
2021/12/25 09:31:24;;;;;;;1.03;1.03;;;;;;;;;;10256587;28;20213;-77
2021/12/25 09:36:27;;;;;;;1.43;0.70;;;;;;;;;;10262448;28;20219;-77
2021/12/25 09:41:29;;;;;;;2.13;0.87;;;;;;;;;;10271171;28;20306;-78
2021/12/25 09:46:31;;;;;;;4.60;3.33;;;;;;;;;;10292565;28;20259;-75
2021/12/25 09:51:32;;;;;;;3.83;3.63;;;;;;;;;;10256173;28;20214;-78
2021/12/25 09:56:34;;;;;;;3.53;1.87;;;;;;;;;;10275331;28;20855;-77
2021/12/25 10:01:55;;;;;;;2.27;1.83;;;;;;;;;;10279692;28;21143;-77
2021/12/25 10:06:56;;;;;;;1.57;1.47;;;;;;;;;;10284393;28;20221;-78
2021/12/25 10:11:59;;;;;;;1.40;1.40;;;;;;;;;;10270799;28;20569;-77
2021/12/25 10:17:11;;;;;;;3.07;2.00;;;;;;;;;;10280174;28;20201;-78
2021/12/25 10:22:12;;;;;;;3.13;2.13;;;;;;;;;;10268139;28;20335;-78
2021/12/25 10:27:19;;;;;;;6.70;3.60;;;;;;;;;;10267340;28;20244;-77
2021/12/25 10:32:23;;;;;;;3.57;3.27;;;;;;;;;;10269872;28;20252;-77
2021/12/25 10:37:24;;;;;;;3.87;3.40;;;;;;;;;;10283115;28;20205;-77
2021/12/25 10:42:33;;;;;;;4.13;2.93;;;;;;;;;;10284342;28;20222;-77
2021/12/25 10:47:34;;;;;;;14.57;7.17;;;;;;;;;;10287365;28;21259;-80
2021/12/25 10:52:41;;;;;;;4.27;3.87;;;;;;;;;;10286283;28;20263;-78
2021/12/25 10:57:43;;;;;;;3.73;2.33;;;;;;;;;;10294187;28;20220;-78
2021/12/25 11:02:46;;;;;;;3.10;2.80;;;;;;;;;;10288811;28;21072;-79
2021/12/25 11:07:48;;;;;;;1.90;1.80;;;;;;;;;;10285774;28;20212;-80
2021/12/25 11:12:49;;;;;;;1.53;1.10;;;;;;;;;;10275028;28;20654;-79
2021/12/25 11:18:03;;;;;;;2.40;1.13;;;;;;;;;;10258566;28;20205;-80
2021/12/25 11:23:07;;;;;;;1.80;0.83;;;;;;;;;;10280448;28;20236;-79
2021/12/25 11:28:10;;;;;;;1.13;1.13;;;;;;;;;;10280406;28;20213;-81
2021/12/25 11:33:11;;;;;;;2.23;2.00;;;;;;;;;;10251938;28;20209;-81
2021/12/25 11:38:13;;;;;;;1.50;0.83;;;;;;;;;;10288996;28;20205;-80
2021/12/25 11:43:14;;;;;;;1.80;1.08;;;;;;;;;;10302540;28;20229;-80
2021/12/25 11:48:17;;;;;;;0.98;0.98;;;;;;;;;;10257012;28;20208;-80
2021/12/25 11:53:23;;;;;;;0.80;0.80;;;;;;;;;;10274465;28;20296;-80
2021/12/25 11:58:50;;;;;;;0.95;0.95;;;;;;;;;;10281917;28;20213;-80
2021/12/25 12:03:56;;;;;;;1.23;0.70;;;;;;;;;;10238620;28;24146;-81
2021/12/25 12:08:57;;;;;;;1.00;1.00;;;;;;;;;;10284096;28;20224;-82
2021/12/25 12:14:27;;;;;;;1.05;0.93;;;;;;;;;;10279773;28;20205;-83
2021/12/25 12:19:53;;;;;;;0.90;0.85;;;;;;;;;;10261226;28;20929;-82
2021/12/25 12:30:06;;;;;;;0.90;0.90;;;;;;;;;;10289638;28;20202;-83
2021/12/25 12:35:26;;;;;;;1.00;1.00;;;;;;;;;;10281227;28;20228;-83
2021/12/25 12:40:30;;;;;;;1.15;0.70;;;;;;;;;;10276364;28;20311;-82
2021/12/25 12:45:36;;;;;;;1.55;0.63;;;;;;;;;;10287898;28;20197;-82
2021/12/25 12:50:38;;;;;;;1.85;0.77;;;;;;;;;;10286462;28;20206;-81
2021/12/25 12:55:40;;;;;;;0.40;0.40;;;;;;;;;;10288533;28;20206;-82
2021/12/25 13:00:43;;;;;;;0.95;0.50;;;;;;;;;;10264732;28;20237;-83
2021/12/25 13:05:51;;;;;;;0.75;0.47;;;;;;;;;;10266122;28;20746;-81
2021/12/25 13:11:01;;;;;;;2.47;0.60;;;;;;;;;;10281789;28;21080;-82
2021/12/25 13:16:07;;;;;;;1.17;1.10;;;;;;;;;;10265013;28;20201;-81
2021/12/25 13:21:09;;;;;;;1.47;0.90;;;;;;;;;;10280937;28;20313;-81
2021/12/25 13:26:10;;;;;;;1.53;0.90;;;;;;;;;;10282506;28;20327;-80
2021/12/25 13:31:13;;;;;;;1.90;0.67;;;;;;;;;;10285242;28;20744;-79
2021/12/25 13:36:16;;;;;;;1.50;0.90;;;;;;;;;;10289611;28;20204;-78
2021/12/25 13:41:28;;;;;;;1.23;0.73;;;;;;;;;;10279438;28;20247;-78
2021/12/25 13:46:48;;;;;;;2.70;0.80;;;;;;;;;;10270789;28;20190;-77
2021/12/25 13:51:49;;;;;;;2.00;0.80;;;;;;;;;;10293119;28;20208;-77
2021/12/25 13:56:51;;;;;;;0.73;0.70;;;;;;;;;;10277618;28;20305;-77
2021/12/25 14:01:55;;;;;;;2.63;0.60;;;;;;;;;;10282872;28;20316;-77
2021/12/25 14:06:56;;;;;;;1.23;0.40;;;;;;;;;;10275655;28;20672;-78
2021/12/25 14:11:58;;;;;;;0.50;0.50;;;;;;;;;;10279781;28;20204;-78
2021/12/25 14:17:00;;;;;;;1.10;0.47;;;;;;;;;;10283671;28;20197;-78
2021/12/25 14:22:03;;;;;;;0.50;0.50;;;;;;;;;;10285588;28;20252;-78
2021/12/25 14:27:08;;;;;;;0.57;0.50;;;;;;;;;;10273267;28;21056;-78
2021/12/25 14:32:20;;;;;;;0.40;0.40;;;;;;;;;;10277001;28;20222;-77
2021/12/25 14:37:34;;;;;;;0.40;0.40;;;;;;;;;;10271126;28;20194;-77
2021/12/25 14:42:36;;;;;;;6.83;0.67;;;;;;;;;;10278437;28;20264;-77
2021/12/25 14:47:47;;;;;;;1.07;0.60;;;;;;;;;;10279964;28;20219;-76
2021/12/25 14:53:10;;;;;;;2.73;0.70;;;;;;;;;;10278751;28;20217;-77
2021/12/25 14:58:13;;;;;;;1.13;0.50;;;;;;;;;;10281567;28;20316;-77
2021/12/25 15:03:16;;;;;;;0.70;0.70;;;;;;;;;;10260106;28;20320;-77
2021/12/25 15:08:22;;;;;;;1.07;0.60;;;;;;;;;;10260446;28;20196;-77
2021/12/25 15:13:24;;;;;;;1.80;0.67;;;;;;;;;;10281330;28;20240;-77
2021/12/25 15:18:27;;;;;;;1.93;0.60;;;;;;;;;;10267727;28;20224;-77
2021/12/25 15:23:29;;;;;;;1.83;1.07;;;;;;;;;;10267531;28;20276;-76
2021/12/25 15:28:31;;;;;;;1.23;0.93;;;;;;;;;;10262783;28;20224;-77
2021/12/25 15:33:32;;;;;;;1.40;1.37;;;;;;;;;;10283784;28;20228;-77
2021/12/25 15:38:33;;;;;;;3.67;1.77;;;;;;;;;;10279878;28;20288;-77
2021/12/25 15:43:34;;;;;;;4.13;1.90;;;;;;;;;;10267109;28;20728;-76
2021/12/25 15:48:36;;;;;;;2.70;2.43;;;;;;;;;;10278972;28;20248;-77
2021/12/25 15:53:37;;;;;;;3.40;3.20;;;;;;;;;;10265897;28;20209;-77
2021/12/25 15:58:38;;;;;;;4.13;3.47;;;;;;;;;;10261388;28;20271;-76
2021/12/25 16:03:39;;;;;;;3.87;3.63;;;;;;;;;;10282467;28;20296;-77
2021/12/25 16:08:41;;;;;;;2.17;2.07;;;;;;;;;;10263972;28;20296;-76
2021/12/25 16:13:42;;;;;;;4.23;2.47;;;;;;;;;;10287109;28;20205;-76
2021/12/25 16:18:44;;;;;;;1.63;1.30;;;;;;;;;;10278066;28;20202;-76
2021/12/25 16:23:45;;;;;;;1.67;1.57;;;;;;;;;;10268539;28;20228;-76
2021/12/25 16:28:47;;;;;;;1.83;1.40;;;;;;;;;;10275525;28;20304;-76
2021/12/25 16:33:48;;;;;;;2.43;1.77;;;;;;;;;;10252245;28;20260;-76
2021/12/25 16:38:49;;;;;;;3.03;1.70;;;;;;;;;;10279906;28;20288;-76
2021/12/25 16:43:51;;;;;;;2.23;2.03;;;;;;;;;;10271945;28;20264;-76
2021/12/25 16:48:52;;;;;;;2.83;2.60;;;;;;;;;;10269709;28;20211;-77
2021/12/25 16:53:53;;;;;;;3.00;2.70;;;;;;;;;;10273469;28;20213;-76
2021/12/25 16:58:54;;;;;;;2.87;2.67;;;;;;;;;;10264805;28;20304;-77
2021/12/25 17:03:55;;;;;;;3.27;2.83;;;;;;;;;;10270781;28;20244;-76
2021/12/25 17:08:57;;;;;;;4.87;3.93;;;;;;;;;;10270948;28;20577;-76
2021/12/25 17:14:00;;;;;;;8.40;5.40;;;;;;;;;;10266549;28;20208;-78
2021/12/25 17:19:02;;;;;;;9.53;6.57;;;;;;;;;;10272772;28;20212;-76
2021/12/25 17:24:03;;;;;;;14.50;6.77;;;;;;;;;;10274166;28;20216;-76
2021/12/25 17:29:04;;;;;;;13.03;7.63;;;;;;;;;;10271490;28;20336;-76
2021/12/25 17:34:05;;;;;;;14.57;8.40;;;;;;;;;;10271941;28;20268;-76
2021/12/25 17:39:06;;;;;;;19.50;9.93;;;;;;;;;;10269619;28;20197;-77
2021/12/25 17:44:07;;;;;;;22.57;10.47;;;;;;;;;;10275953;28;20585;-77
2021/12/25 17:49:10;;;;;;;18.97;9.40;;;;;;;;;;10257893;28;20975;-77
2021/12/25 17:54:11;;;;;;;20.23;10.37;;;;;;;;;;10271177;28;20216;-77
2021/12/25 17:59:12;;;;;;;16.10;9.53;;;;;;;;;;10273495;28;20244;-77
2021/12/25 18:04:13;;;;;;;21.87;10.57;;;;;;;;;;10273440;28;20248;-77
2021/12/25 18:09:15;;;;;;;17.43;10.27;;;;;;;;;;10257611;28;20928;-77
2021/12/25 18:14:17;;;;;;;13.30;7.83;;;;;;;;;;10283608;28;20198;-77
2021/12/25 18:19:18;;;;;;;11.67;5.80;;;;;;;;;;10283645;28;20228;-77
2021/12/25 18:24:19;;;;;;;7.73;5.20;;;;;;;;;;10283181;28;22020;-77
2021/12/25 18:29:20;;;;;;;6.23;4.77;;;;;;;;;;10284653;28;21099;-77
2021/12/25 18:34:21;;;;;;;4.77;3.63;;;;;;;;;;10265964;28;20221;-77
2021/12/25 18:39:23;;;;;;;6.50;4.07;;;;;;;;;;10281999;28;20684;-77
2021/12/25 18:44:24;;;;;;;5.37;3.50;;;;;;;;;;10282143;28;20215;-77
2021/12/25 18:49:25;;;;;;;5.63;3.30;;;;;;;;;;10245696;28;20784;-77
2021/12/25 18:54:26;;;;;;;6.53;3.77;;;;;;;;;;10288939;28;20198;-77
2021/12/25 18:59:27;;;;;;;4.30;3.93;;;;;;;;;;10274409;28;20197;-77
2021/12/25 19:04:29;;;;;;;5.97;3.30;;;;;;;;;;10283761;28;20971;-77
2021/12/25 19:09:30;;;;;;;3.87;2.97;;;;;;;;;;10285727;28;20208;-77
2021/12/25 19:14:31;;;;;;;5.23;3.07;;;;;;;;;;10281722;28;20197;-77
2021/12/25 19:19:32;;;;;;;6.17;3.30;;;;;;;;;;10265674;28;20313;-77
2021/12/25 19:24:33;;;;;;;2.43;2.23;;;;;;;;;;10279199;28;20232;-77
2021/12/25 19:29:34;;;;;;;2.80;2.60;;;;;;;;;;10280142;28;20220;-77
2021/12/25 19:34:35;;;;;;;2.20;1.80;;;;;;;;;;10275975;28;20209;-77
2021/12/25 19:39:37;;;;;;;2.80;2.60;;;;;;;;;;10273838;28;20208;-77
2021/12/25 19:44:38;;;;;;;2.70;2.40;;;;;;;;;;10260850;28;20204;-76
2021/12/25 19:49:39;;;;;;;4.13;3.23;;;;;;;;;;10267504;28;20205;-78
2021/12/25 19:54:40;;;;;;;4.80;2.60;;;;;;;;;;10274042;28;20198;-78
2021/12/25 19:59:41;;;;;;;5.30;2.97;;;;;;;;;;10275492;28;20205;-75
2021/12/25 20:04:43;;;;;;;6.93;3.23;;;;;;;;;;10267709;28;20218;-74
2021/12/25 20:09:44;;;;;;;7.53;3.33;;;;;;;;;;10267574;28;20198;-75
2021/12/25 20:14:45;;;;;;;3.07;2.53;;;;;;;;;;10276679;28;20213;-75
2021/12/25 20:19:46;;;;;;;4.30;3.10;;;;;;;;;;10255590;28;20228;-77
2021/12/25 20:24:47;;;;;;;5.90;3.77;;;;;;;;;;10289795;28;20275;-77
2021/12/25 20:29:48;;;;;;;7.03;4.50;;;;;;;;;;10281135;28;20205;-78
2021/12/25 20:34:50;;;;;;;6.67;3.70;;;;;;;;;;10275165;28;20236;-77
2021/12/25 20:39:51;;;;;;;10.10;4.30;;;;;;;;;;10276602;28;20228;-77
2021/12/25 20:50:12;;;;;;;7.50;5.30;;;;;;;;;;10275677;28;20208;-77
2021/12/25 20:55:14;;;;;;;10.20;5.43;;;;;;;;;;10277380;28;20212;-77
2021/12/25 21:00:16;;;;;;;8.67;5.77;;;;;;;;;;10275850;28;20220;-77
2021/12/25 21:05:18;;;;;;;8.43;5.33;;;;;;;;;;10278729;28;20655;-77
2021/12/25 21:10:19;;;;;;;8.60;4.70;;;;;;;;;;10279840;28;20217;-77
2021/12/25 21:15:20;;;;;;;8.67;4.90;;;;;;;;;;10280486;28;20800;-77
2021/12/25 21:20:24;;;;;;;7.40;4.17;;;;;;;;;;10262996;28;20675;-78
2021/12/25 21:25:26;;;;;;;7.20;4.37;;;;;;;;;;10276673;28;20214;-77
2021/12/25 21:30:27;;;;;;;9.03;4.37;;;;;;;;;;10263733;28;20206;-77
2021/12/25 21:35:30;;;;;;;14.97;7.67;;;;;;;;;;10283415;28;20739;-77
2021/12/25 21:40:31;;;;;;;21.77;10.20;;;;;;;;;;10285541;28;20225;-77
2021/12/25 21:45:33;;;;;;;25.10;11.10;;;;;;;;;;10265337;28;20208;-77
2021/12/25 21:50:35;;;;;;;19.37;9.27;;;;;;;;;;10274913;28;20229;-77
2021/12/25 21:55:37;;;;;;;20.23;10.40;;;;;;;;;;10283098;28;20212;-77
2021/12/25 22:00:41;;;;;;;21.60;10.97;;;;;;;;;;10283332;28;20229;-77
2021/12/25 22:05:43;;;;;;;22.23;11.07;;;;;;;;;;10271685;28;20208;-77
2021/12/25 22:10:47;;;;;;;25.83;10.53;;;;;;;;;;10270371;28;20225;-77
2021/12/25 22:15:48;;;;;;;23.73;12.00;;;;;;;;;;10289961;28;20328;-77
2021/12/25 22:20:50;;;;;;;17.73;8.93;;;;;;;;;;10269912;28;20221;-77
2021/12/25 22:25:51;;;;;;;15.23;6.90;;;;;;;;;;10286723;28;20213;-77
2021/12/25 22:30:52;;;;;;;17.87;5.63;;;;;;;;;;10281519;28;20577;-75
2021/12/25 22:35:53;;;;;;;10.17;6.00;;;;;;;;;;10285903;28;20646;-77
2021/12/25 22:40:55;;;;;;;17.53;6.50;;;;;;;;;;10283354;28;20247;-77
2021/12/25 22:45:58;;;;;;;14.60;7.10;;;;;;;;;;10263819;28;20809;-76
2021/12/25 22:50:59;;;;;;;18.00;8.00;;;;;;;;;;10278366;28;20257;-77
2021/12/25 22:56:00;;;;;;;14.57;5.60;;;;;;;;;;10282724;28;20209;-77
2021/12/25 23:01:07;;;;;;;20.77;7.67;;;;;;;;;;10282824;28;20296;-76
2021/12/25 23:06:08;;;;;;;18.67;7.47;;;;;;;;;;10283165;28;20216;-77
2021/12/25 23:11:09;;;;;;;15.57;7.60;;;;;;;;;;10284662;28;20205;-77
2021/12/25 23:16:11;;;;;;;19.03;6.77;;;;;;;;;;10281853;28;20201;-77
2021/12/25 23:21:12;;;;;;;13.03;7.03;;;;;;;;;;10280807;28;20255;-76
2021/12/25 23:26:13;;;;;;;12.20;5.90;;;;;;;;;;10283614;28;20246;-75
2021/12/25 23:31:14;;;;;;;18.67;9.13;;;;;;;;;;10275349;28;20232;-75
2021/12/25 23:36:17;;;;;;;19.57;9.20;;;;;;;;;;10282311;28;20207;-75
2021/12/25 23:41:20;;;;;;;12.90;6.87;;;;;;;;;;10280080;28;20228;-75
2021/12/25 23:46:21;;;;;;;15.10;6.73;;;;;;;;;;10275826;28;20312;-75
2021/12/25 23:51:22;;;;;;;14.93;7.30;;;;;;;;;;10243901;28;20706;-75
2021/12/25 23:56:23;;;;;;;11.77;6.87;;;;;;;;;;10270700;28;20209;-75
